Accueil
METAR-TAF:

METAR-TAF

Aéroports :

Fritzlar, Allemagne

latitude: 51-07N, longitude: 009-17E, altitude: 172 m

Observation

Le bulletin a été fait il y a 18 minutes, à 10:00 UTC
Vent 3 kt de direction variable
Température 10°C
Humidité 46%
Pression 1013 hPa
Visibilité 10 km ou plus
Nuages épars à une hauteur de 4000 ft

METAR: ETHF 281000Z VRB03KT 9999 SCT040 10/M01 Q1013 BLU+FCST CANCEL

Heure: 12:18 (10:18 UTC)

Prévision

Le bulletin a été fait il y a 29 minutes, à 09:49 UTC
Prévision valable du 28 à 08 UTC au 28 à 17 UTC
Vent 3 kt de direction variable
Visibilité: 1000 m
Quelques nuages à une hauteur de 4000 ft

TAF: ETHF 280949Z 2808/2817 VRB03KT 9999 NSW FEW040 CANCEL 1000

Observations et prévisions météorologiques de plus de 4000 aéroports (messages METAR et TAF).

Les stations disponibles sont représentées par des disques jaunes et rouges sur la carte.

Passer la souris dessus pour voir le nom de la station.

Cliquer dessus pour voir les observations et prévisions météorologiques.

Pour changer de carte: cliquez sur les boutons verts avec une croix noire pour zoomer, sur le bouton vert avec un tiret pour effectuer un zoom arrière, ou sur les flèches vertes pour les cartes adjacentes.


METAR-TAF: